Cape Providence — 3EWQ — position and weather

sailwx.info

Track history (hours):
 
Tides and Currents Weather Stations Pressure Air Temp Water Temp Dewpoint Dewpoint Depression Visibility Wind Speed Wind Dir Waves Ship Positions

Cape Providence

Last reported at 2015-Jan-20 01:15 UTC. Time now 2015-Feb-01 10:17 UTC.
Position N 35°12' E 120°01'.
Warning: this ship's position is 12 days out of date.

Length 292 m; draft 10.7 m.

Type: Cargo ship. MMSI: 372773000.

Date/timePositionNaut miles runAvg speedWind from/ knotsBaromVisibWave heightAir tempDewpointWater temp
2015-Jan-20 01:15N 35°12' E 120°01'811.6
2015-Jan-20 00:33N 35°14' E 119°51'1110.9
2015-Jan-19 23:33N 35°18' E 119°39'6 6.0
2015-Jan-19 22:33N 35°22' E 119°33'0 0.0
2015-Jan-19 21:24N 35°22' E 119°33'0 0.0
2015-Jan-19 20:30N 35°22' E 119°33'0 0.0
2015-Jan-19 19:30N 35°22' E 119°33'0 0.0
2015-Jan-19 18:30N 35°22' E 119°33'0 0.0
2015-Jan-19 17:30N 35°22' E 119°33'0 0.0
2015-Jan-19 16:30N 35°22' E 119°33'0 0.0
2015-Jan-19 15:30N 35°22' E 119°33'0 0.0
2015-Jan-19 14:18N 35°22' E 119°33'0 0.0
2015-Jan-19 13:30N 35°22' E 119°33'0 0.0
2015-Jan-19 12:30N 35°22' E 119°33'0 0.0
2015-Jan-19 11:12N 35°22' E 119°33'0 0.0
2015-Jan-19 10:30N 35°22' E 119°33'0 0.0
2015-Jan-19 09:18N 35°22' E 119°33'0 0.0
2015-Jan-19 07:30N 35°22' E 119°33'0 0.0
2015-Jan-19 06:30N 35°22' E 119°33'0 0.0
2015-Jan-19 04:30N 35°22' E 119°33'0 0.0
2015-Jan-19 03:30N 35°22' E 119°33'0 0.0
2015-Jan-19 02:18N 35°22' E 119°33'0 0.0
2015-Jan-19 01:30N 35°22' E 119°33'0 0.0
2015-Jan-19 00:30N 35°22' E 119°33'0 0.0
2015-Jan-18 23:30N 35°22' E 119°33'0 0.0
2015-Jan-18 22:24N 35°22' E 119°33'0 0.0
2015-Jan-18 21:18N 35°22' E 119°33'0 0.0
2015-Jan-18 20:18N 35°22' E 119°33'0 0.0
2015-Jan-18 19:18N 35°22' E 119°33'0 0.0
2015-Jan-18 18:30N 35°22' E 119°33'0 0.0
2015-Jan-18 17:30N 35°22' E 119°33'0 0.0
2015-Jan-18 16:30N 35°22' E 119°33'0 0.0
2015-Jan-18 15:30N 35°22' E 119°33'0 0.0
2015-Jan-18 14:18N 35°22' E 119°33'0 0.0
2015-Jan-18 13:30N 35°22' E 119°33'0 0.0
2015-Jan-18 12:30N 35°22' E 119°33'0 0.0
2015-Jan-18 11:30N 35°22' E 119°33'0 0.0
2015-Jan-18 10:24N 35°22' E 119°33'0 0.0
2015-Jan-18 09:12N 35°22' E 119°33'0 0.0
2015-Jan-18 08:30N 35°22' E 119°33'0 0.0
2015-Jan-18 07:30N 35°22' E 119°33'0 0.0
2015-Jan-18 06:33N 35°22' E 119°33'0 0.2
2015-Jan-18 05:29N 35°22' E 119°33'0 0.0
2015-Jan-18 04:29N 35°22' E 119°33'0 0.0
2015-Jan-18 03:29N 35°22' E 119°33'0 0.0
2015-Jan-18 02:23N 35°22' E 119°33'0 0.0
2015-Jan-18 01:29N 35°22' E 119°33'0 0.0
2015-Jan-18 00:29N 35°22' E 119°33'0 0.0
2015-Jan-17 23:29N 35°22' E 119°33'0 0.0
2015-Jan-17 22:23N 35°22' E 119°33'0 0.0
2015-Jan-17 21:29N 35°22' E 119°33'0 0.0
2015-Jan-17 20:29N 35°22' E 119°33'0 0.0
2015-Jan-17 19:23N 35°22' E 119°33'0 0.0
2015-Jan-17 18:29N 35°22' E 119°33'0 0.0
2015-Jan-17 17:28N 35°22' E 119°33'0 0.0
2015-Jan-17 16:28N 35°22' E 119°33'0 0.0
2015-Jan-17 15:28N 35°22' E 119°33'0 0.0
2015-Jan-17 13:10N 35°22' E 119°33'0 0.0
2015-Jan-17 12:28N 35°22' E 119°33'0 0.0
2015-Jan-17 11:17N 35°22' E 119°33'0 0.0
2015-Jan-17 10:28N 35°22' E 119°33'0 0.0
2015-Jan-17 09:28N 35°22' E 119°33'0 0.0
2015-Jan-17 08:28N 35°22' E 119°33'0 0.0
2015-Jan-17 07:28N 35°22' E 119°33'0 0.0
2015-Jan-17 06:22N 35°22' E 119°33'0 0.0
2015-Jan-17 04:16N 35°22' E 119°33'0 0.0
2015-Jan-17 03:04N 35°22' E 119°33'0 0.0
2015-Jan-17 02:22N 35°22' E 119°33'0 0.0
2015-Jan-17 01:22N 35°22' E 119°33'0 0.0
2015-Jan-17 00:22N 35°22' E 119°33'0 0.0
2015-Jan-16 23:28N 35°22' E 119°33'0 0.0
2015-Jan-16 22:28N 35°22' E 119°33'0 0.0
2015-Jan-16 21:28N 35°22' E 119°33'0 0.0
2015-Jan-16 20:28N 35°22' E 119°33'0 0.0
2015-Jan-16 19:28N 35°22' E 119°33'1 1.6
2015-Jan-16 18:33N 35°20' E 119°34'7 7.1
2015-Jan-16 17:33N 35°17' E 119°42'4 4.2
2015-Jan-16 16:33N 35°17' E 119°47'1 1.2
2015-Jan-16 15:27N 35°17' E 119°48'0 0.1
2015-Jan-16 14:21N 35°17' E 119°48'0 0.1
2015-Jan-16 13:33N 35°17' E 119°48'0 0.1
2015-Jan-16 12:27N 35°17' E 119°49'0 0.1
2015-Jan-16 11:33N 35°17' E 119°49'0 0.1
2015-Jan-16 10:33N 35°17' E 119°49'0 0.1
2015-Jan-16 09:33N 35°17' E 119°49'0 0.2
2015-Jan-16 08:28N 35°17' E 119°48'3 3.3
2015-Jan-16 07:33N 35°17' E 119°45'5 5.1
2015-Jan-16 06:33N 35°18' E 119°39'4 3.9
2015-Jan-16 05:33N 35°17' E 119°43'3 2.6
2015-Jan-16 04:33N 35°17' E 119°46'4 4.1
2015-Jan-16 03:33N 35°18' E 119°51'1 0.7
2015-Jan-16 02:33N 35°17' E 119°52'0 0.2
2015-Jan-16 01:27N 35°18' E 119°52'0 0.0
2015-Jan-16 00:33N 35°18' E 119°52'0 0.0
2015-Jan-15 23:21N 35°18' E 119°52'0 0.0
2015-Jan-15 22:33N 35°18' E 119°52'0 0.0
2015-Jan-15 21:33N 35°18' E 119°52'0 0.0
2015-Jan-15 20:33N 35°18' E 119°52'0 0.1
2015-Jan-15 17:27N 35°17' E 119°52'0 0.1
2015-Jan-15 16:33N 35°17' E 119°52'0 0.0
2015-Jan-15 15:33N 35°17' E 119°52'0 0.1
2015-Jan-15 14:27N 35°17' E 119°52'0 0.1
2015-Jan-15 13:21N 35°18' E 119°52'0 0.2
2015-Jan-15 12:09N 35°18' E 119°52'0 0.1
2015-Jan-15 11:33N 35°18' E 119°52'0 0.1
2015-Jan-15 10:33N 35°18' E 119°52'0 0.1
2015-Jan-15 09:33N 35°18' E 119°52'0 0.0
2015-Jan-15 08:33N 35°18' E 119°52'0 0.0
2015-Jan-15 07:27N 35°17' E 119°52'0 0.1
2015-Jan-15 06:27N 35°17' E 119°52'0 0.1
2015-Jan-15 05:33N 35°17' E 119°52'0 0.1
2015-Jan-15 04:27N 35°17' E 119°52'0 0.0
2015-Jan-15 03:21N 35°17' E 119°52'0 0.0
2015-Jan-15 02:33N 35°17' E 119°52'0 0.0
2015-Jan-15 01:33N 35°17' E 119°52'0 0.2
2015-Jan-15 00:27N 35°17' E 119°52'0 0.1
2015-Jan-14 22:27N 35°18' E 119°52'0 0.0
2015-Jan-14 21:33N 35°18' E 119°52'0 0.0
2015-Jan-14 19:27N 35°17' E 119°52'0 0.1
2015-Jan-14 18:27N 35°17' E 119°52'0 0.1
2015-Jan-14 17:21N 35°17' E 119°52'0 0.1
2015-Jan-14 16:33N 35°17' E 119°52'0 0.1
2015-Jan-14 15:15N 35°17' E 119°52'0 0.0
2015-Jan-14 14:33N 35°17' E 119°52'0 0.0
2015-Jan-14 13:33N 35°17' E 119°52'0 0.1
2015-Jan-14 12:33N 35°17' E 119°52'0 0.1
2015-Jan-14 11:15N 35°18' E 119°52'0 0.1
2015-Jan-14 10:33N 35°18' E 119°52'0 0.0
2015-Jan-14 09:21N 35°18' E 119°52'0 0.1
2015-Jan-14 08:33N 35°18' E 119°52'0 0.0
2015-Jan-14 07:33N 35°18' E 119°52'0 0.1
2015-Jan-14 05:27N 35°17' E 119°52'0 0.1
2015-Jan-14 04:21N 35°17' E 119°52'0 0.1
2015-Jan-14 03:27N 35°17' E 119°52'0 0.0
2015-Jan-14 02:33N 35°17' E 119°52'0 0.0
2015-Jan-14 01:33N 35°17' E 119°52'0 0.1
2015-Jan-14 00:33N 35°17' E 119°52'0 0.0
2015-Jan-13 23:27N 35°17' E 119°52'0 0.2
2015-Jan-13 22:27N 35°18' E 119°52'0 0.1
2015-Jan-13 21:27N 35°18' E 119°52'0 0.0
2015-Jan-13 20:27N 35°18' E 119°52'0 0.0
2015-Jan-13 19:33N 35°18' E 119°52'0 0.0
2015-Jan-13 18:33N 35°18' E 119°52'0 0.2
2015-Jan-13 17:27N 35°17' E 119°52'0 0.2
2015-Jan-13 16:33N 35°17' E 119°52'0 0.0
2015-Jan-13 15:33N 35°17' E 119°52'0 0.1
2015-Jan-13 14:33N 35°17' E 119°52'0 0.0
2015-Jan-13 13:33N 35°17' E 119°52'0 0.0
2015-Jan-13 12:33N 35°17' E 119°52'0 0.1
2015-Jan-13 11:15N 35°17' E 119°52'0 0.1
2015-Jan-13 09:27N 35°18' E 119°52'0 0.1
2015-Jan-13 08:21N 35°18' E 119°52'0 0.1
2015-Jan-13 07:33N 35°18' E 119°52'0 0.1
2015-Jan-13 04:27N 35°17' E 119°52'0 0.1
2015-Jan-13 03:27N 35°17' E 119°52'0 0.0
2015-Jan-13 02:27N 35°17' E 119°52'0 0.0
2015-Jan-13 01:27N 35°17' E 119°52'0 0.0
2015-Jan-13 00:33N 35°17' E 119°52'0 0.1
2015-Jan-12 23:27N 35°17' E 119°52'0 0.1
2015-Jan-12 22:21N 35°18' E 119°52'0 0.1
2015-Jan-12 20:33N 35°18' E 119°52'0 0.0
2015-Jan-12 19:33N 35°18' E 119°52'0 0.0
2015-Jan-12 18:33N 35°18' E 119°52'0 0.1
2015-Jan-12 17:21N 35°17' E 119°52'0 0.2
2015-Jan-12 16:33N 35°17' E 119°52'0 0.1
2015-Jan-12 15:33N 35°17' E 119°52'0 0.0
2015-Jan-12 14:27N 35°17' E 119°52'0 0.0
2015-Jan-12 13:33N 35°17' E 119°52'0 0.0
2015-Jan-12 12:15N 35°17' E 119°52'0 0.0
2015-Jan-12 11:33N 35°17' E 119°52'0 0.0
2015-Jan-12 10:27N 35°17' E 119°52'0 0.1
2015-Jan-12 07:21N 35°18' E 119°52'0 0.0
2015-Jan-12 06:27N 35°18' E 119°52'0 0.1
2015-Jan-12 05:27N 35°18' E 119°52'0 0.2
2015-Jan-12 04:27N 35°17' E 119°52'0 0.2
2015-Jan-12 03:09N 35°17' E 119°52'0 0.0
2015-Jan-12 02:33N 35°17' E 119°52'0 0.0
2015-Jan-12 01:33N 35°17' E 119°52'0 0.0
2015-Jan-12 00:33N 35°17' E 119°52'0 0.0
2015-Jan-11 23:09N 35°17' E 119°52'0 0.1
2015-Jan-11 22:33N 35°17' E 119°52'0 0.2
2015-Jan-11 20:15N 35°18' E 119°52'0 0.0
2015-Jan-11 18:27N 35°18' E 119°52'0 0.0
2015-Jan-11 17:33N 35°18' E 119°52'0 0.2
2015-Jan-11 16:03N 35°17' E 119°52'0 0.1
2015-Jan-11 15:27N 35°17' E 119°52'0 0.1
2015-Jan-11 14:33N 35°17' E 119°52'0 0.1
2015-Jan-11 13:33N 35°17' E 119°52'0 0.0
2015-Jan-11 12:27N 35°17' E 119°52'0 0.0
2015-Jan-11 11:21N 35°17' E 119°52'0 0.1
2015-Jan-11 10:27N 35°17' E 119°52'0 0.1
2015-Jan-11 07:21N 35°18' E 119°52'0 0.0
2015-Jan-11 06:21N 35°18' E 119°52'0 0.0
2015-Jan-11 05:33N 35°18' E 119°52'0 0.0
2015-Jan-11 04:33N 35°18' E 119°52'0 0.3
2015-Jan-11 03:33N 35°17' E 119°52'0 0.1
2015-Jan-11 02:27N 35°17' E 119°52'0 0.1
2015-Jan-11 01:27N 35°17' E 119°52'0 0.0
2015-Jan-11 00:33N 35°17' E 119°52'0 0.1
2015-Jan-10 23:33N 35°17' E 119°52'0 0.0
2015-Jan-10 22:27N 35°17' E 119°52'0 0.0
2015-Jan-10 21:33N 35°17' E 119°52'0 0.1
2015-Jan-10 15:21N 35°17' E 119°52'0 0.1
2015-Jan-10 14:27N 35°17' E 119°52'0 0.2
2015-Jan-10 13:33N 35°17' E 119°52'0 0.1
2015-Jan-10 12:33N 35°17' E 119°52'0 0.0
2015-Jan-10 11:33N 35°17' E 119°52'0 0.0
2015-Jan-10 10:27N 35°17' E 119°52'0 0.2
2015-Jan-10 08:27N 35°18' E 119°52'0 0.1
2015-Jan-10 07:33N 35°18' E 119°52'0 0.1
2015-Jan-10 06:33N 35°18' E 119°52'0 0.0
2015-Jan-10 05:33N 35°18' E 119°52'0 0.1
2015-Jan-10 04:33N 35°18' E 119°52'0 0.0
2015-Jan-10 03:33N 35°18' E 119°52'0 0.0
2015-Jan-10 02:33N 35°17' E 119°52'0 0.1
2015-Jan-10 01:33N 35°17' E 119°52'  
Track history (hours):
 
Tides and Currents Weather Stations Pressure Air Temp Water Temp Dewpoint Dewpoint Depression Visibility Wind Speed Wind Dir Waves Ship Positions

Cape Providence

Last reported at 2015-Jan-20 01:15 UTC. Time now 2015-Feb-01 10:17 UTC.
Position N 35°12' E 120°01'.
Warning: this ship's position is 12 days out of date.

Length 292 m; draft 10.7 m.

Type: Cargo ship. MMSI: 372773000.

Date/timePositionNaut miles runAvg speedWind from/ knotsBaromVisibWave heightAir tempDewpointWater temp
2015-Jan-20 01:15N 35°12' E 120°01'811.6
2015-Jan-20 00:33N 35°14' E 119°51'1110.9
2015-Jan-19 23:33N 35°18' E 119°39'6 6.0
2015-Jan-19 22:33N 35°22' E 119°33'0 0.0
2015-Jan-19 21:24N 35°22' E 119°33'0 0.0
2015-Jan-19 20:30N 35°22' E 119°33'0 0.0
2015-Jan-19 19:30N 35°22' E 119°33'0 0.0
2015-Jan-19 18:30N 35°22' E 119°33'0 0.0
2015-Jan-19 17:30N 35°22' E 119°33'0 0.0
2015-Jan-19 16:30N 35°22' E 119°33'0 0.0
2015-Jan-19 15:30N 35°22' E 119°33'0 0.0
2015-Jan-19 14:18N 35°22' E 119°33'0 0.0
2015-Jan-19 13:30N 35°22' E 119°33'0 0.0
2015-Jan-19 12:30N 35°22' E 119°33'0 0.0
2015-Jan-19 11:12N 35°22' E 119°33'0 0.0
2015-Jan-19 10:30N 35°22' E 119°33'0 0.0
2015-Jan-19 09:18N 35°22' E 119°33'0 0.0
2015-Jan-19 07:30N 35°22' E 119°33'0 0.0
2015-Jan-19 06:30N 35°22' E 119°33'0 0.0
2015-Jan-19 04:30N 35°22' E 119°33'0 0.0
2015-Jan-19 03:30N 35°22' E 119°33'0 0.0
2015-Jan-19 02:18N 35°22' E 119°33'0 0.0
2015-Jan-19 01:30N 35°22' E 119°33'0 0.0
2015-Jan-19 00:30N 35°22' E 119°33'0 0.0
2015-Jan-18 23:30N 35°22' E 119°33'0 0.0
2015-Jan-18 22:24N 35°22' E 119°33'0 0.0
2015-Jan-18 21:18N 35°22' E 119°33'0 0.0
2015-Jan-18 20:18N 35°22' E 119°33'0 0.0
2015-Jan-18 19:18N 35°22' E 119°33'0 0.0
2015-Jan-18 18:30N 35°22' E 119°33'0 0.0
2015-Jan-18 17:30N 35°22' E 119°33'0 0.0
2015-Jan-18 16:30N 35°22' E 119°33'0 0.0
2015-Jan-18 15:30N 35°22' E 119°33'0 0.0
2015-Jan-18 14:18N 35°22' E 119°33'0 0.0
2015-Jan-18 13:30N 35°22' E 119°33'0 0.0
2015-Jan-18 12:30N 35°22' E 119°33'0 0.0
2015-Jan-18 11:30N 35°22' E 119°33'0 0.0
2015-Jan-18 10:24N 35°22' E 119°33'0 0.0
2015-Jan-18 09:12N 35°22' E 119°33'0 0.0
2015-Jan-18 08:30N 35°22' E 119°33'0 0.0
2015-Jan-18 07:30N 35°22' E 119°33'0 0.0
2015-Jan-18 06:33N 35°22' E 119°33'0 0.2
2015-Jan-18 05:29N 35°22' E 119°33'0 0.0
2015-Jan-18 04:29N 35°22' E 119°33'0 0.0
2015-Jan-18 03:29N 35°22' E 119°33'0 0.0
2015-Jan-18 02:23N 35°22' E 119°33'0 0.0
2015-Jan-18 01:29N 35°22' E 119°33'0 0.0
2015-Jan-18 00:29N 35°22' E 119°33'0 0.0
2015-Jan-17 23:29N 35°22' E 119°33'0 0.0
2015-Jan-17 22:23N 35°22' E 119°33'0 0.0
2015-Jan-17 21:29N 35°22' E 119°33'0 0.0
2015-Jan-17 20:29N 35°22' E 119°33'0 0.0
2015-Jan-17 19:23N 35°22' E 119°33'0 0.0
2015-Jan-17 18:29N 35°22' E 119°33'0 0.0
2015-Jan-17 17:28N 35°22' E 119°33'0 0.0
2015-Jan-17 16:28N 35°22' E 119°33'0 0.0
2015-Jan-17 15:28N 35°22' E 119°33'0 0.0
2015-Jan-17 13:10N 35°22' E 119°33'0 0.0
2015-Jan-17 12:28N 35°22' E 119°33'0 0.0
2015-Jan-17 11:17N 35°22' E 119°33'0 0.0
2015-Jan-17 10:28N 35°22' E 119°33'0 0.0
2015-Jan-17 09:28N 35°22' E 119°33'0 0.0
2015-Jan-17 08:28N 35°22' E 119°33'0 0.0
2015-Jan-17 07:28N 35°22' E 119°33'0 0.0
2015-Jan-17 06:22N 35°22' E 119°33'0 0.0
2015-Jan-17 04:16N 35°22' E 119°33'0 0.0
2015-Jan-17 03:04N 35°22' E 119°33'0 0.0
2015-Jan-17 02:22N 35°22' E 119°33'0 0.0
2015-Jan-17 01:22N 35°22' E 119°33'0 0.0
2015-Jan-17 00:22N 35°22' E 119°33'0 0.0
2015-Jan-16 23:28N 35°22' E 119°33'0 0.0
2015-Jan-16 22:28N 35°22' E 119°33'0 0.0
2015-Jan-16 21:28N 35°22' E 119°33'0 0.0
2015-Jan-16 20:28N 35°22' E 119°33'0 0.0
2015-Jan-16 19:28N 35°22' E 119°33'1 1.6
2015-Jan-16 18:33N 35°20' E 119°34'7 7.1
2015-Jan-16 17:33N 35°17' E 119°42'4 4.2
2015-Jan-16 16:33N 35°17' E 119°47'1 1.2
2015-Jan-16 15:27N 35°17' E 119°48'0 0.1
2015-Jan-16 14:21N 35°17' E 119°48'0 0.1
2015-Jan-16 13:33N 35°17' E 119°48'0 0.1
2015-Jan-16 12:27N 35°17' E 119°49'0 0.1
2015-Jan-16 11:33N 35°17' E 119°49'0 0.1
2015-Jan-16 10:33N 35°17' E 119°49'0 0.1
2015-Jan-16 09:33N 35°17' E 119°49'0 0.2
2015-Jan-16 08:28N 35°17' E 119°48'3 3.3
2015-Jan-16 07:33N 35°17' E 119°45'5 5.1
2015-Jan-16 06:33N 35°18' E 119°39'4 3.9
2015-Jan-16 05:33N 35°17' E 119°43'3 2.6
2015-Jan-16 04:33N 35°17' E 119°46'4 4.1
2015-Jan-16 03:33N 35°18' E 119°51'1 0.7
2015-Jan-16 02:33N 35°17' E 119°52'0 0.2
2015-Jan-16 01:27N 35°18' E 119°52'0 0.0
2015-Jan-16 00:33N 35°18' E 119°52'0 0.0
2015-Jan-15 23:21N 35°18' E 119°52'0 0.0
2015-Jan-15 22:33N 35°18' E 119°52'0 0.0
2015-Jan-15 21:33N 35°18' E 119°52'0 0.0
2015-Jan-15 20:33N 35°18' E 119°52'0 0.1
2015-Jan-15 17:27N 35°17' E 119°52'0 0.1
2015-Jan-15 16:33N 35°17' E 119°52'0 0.0
2015-Jan-15 15:33N 35°17' E 119°52'0 0.1
2015-Jan-15 14:27N 35°17' E 119°52'0 0.1
2015-Jan-15 13:21N 35°18' E 119°52'0 0.2
2015-Jan-15 12:09N 35°18' E 119°52'0 0.1
2015-Jan-15 11:33N 35°18' E 119°52'0 0.1
2015-Jan-15 10:33N 35°18' E 119°52'0 0.1
2015-Jan-15 09:33N 35°18' E 119°52'0 0.0
2015-Jan-15 08:33N 35°18' E 119°52'0 0.0
2015-Jan-15 07:27N 35°17' E 119°52'0 0.1
2015-Jan-15 06:27N 35°17' E 119°52'0 0.1
2015-Jan-15 05:33N 35°17' E 119°52'0 0.1
2015-Jan-15 04:27N 35°17' E 119°52'0 0.0
2015-Jan-15 03:21N 35°17' E 119°52'0 0.0
2015-Jan-15 02:33N 35°17' E 119°52'0 0.0
2015-Jan-15 01:33N 35°17' E 119°52'0 0.2
2015-Jan-15 00:27N 35°17' E 119°52'0 0.1
2015-Jan-14 22:27N 35°18' E 119°52'0 0.0
2015-Jan-14 21:33N 35°18' E 119°52'0 0.0
2015-Jan-14 19:27N 35°17' E 119°52'0 0.1
2015-Jan-14 18:27N 35°17' E 119°52'0 0.1
2015-Jan-14 17:21N 35°17' E 119°52'0 0.1
2015-Jan-14 16:33N 35°17' E 119°52'0 0.1
2015-Jan-14 15:15N 35°17' E 119°52'0 0.0
2015-Jan-14 14:33N 35°17' E 119°52'0 0.0
2015-Jan-14 13:33N 35°17' E 119°52'0 0.1
2015-Jan-14 12:33N 35°17' E 119°52'0 0.1
2015-Jan-14 11:15N 35°18' E 119°52'0 0.1
2015-Jan-14 10:33N 35°18' E 119°52'0 0.0
2015-Jan-14 09:21N 35°18' E 119°52'0 0.1
2015-Jan-14 08:33N 35°18' E 119°52'0 0.0
2015-Jan-14 07:33N 35°18' E 119°52'0 0.1
2015-Jan-14 05:27N 35°17' E 119°52'0 0.1
2015-Jan-14 04:21N 35°17' E 119°52'0 0.1
2015-Jan-14 03:27N 35°17' E 119°52'0 0.0
2015-Jan-14 02:33N 35°17' E 119°52'0 0.0
2015-Jan-14 01:33N 35°17' E 119°52'0 0.1
2015-Jan-14 00:33N 35°17' E 119°52'0 0.0
2015-Jan-13 23:27N 35°17' E 119°52'0 0.2
2015-Jan-13 22:27N 35°18' E 119°52'0 0.1
2015-Jan-13 21:27N 35°18' E 119°52'0 0.0
2015-Jan-13 20:27N 35°18' E 119°52'0 0.0
2015-Jan-13 19:33N 35°18' E 119°52'0 0.0
2015-Jan-13 18:33N 35°18' E 119°52'0 0.2
2015-Jan-13 17:27N 35°17' E 119°52'0 0.2
2015-Jan-13 16:33N 35°17' E 119°52'0 0.0
2015-Jan-13 15:33N 35°17' E 119°52'0 0.1
2015-Jan-13 14:33N 35°17' E 119°52'0 0.0
2015-Jan-13 13:33N 35°17' E 119°52'0 0.0
2015-Jan-13 12:33N 35°17' E 119°52'0 0.1
2015-Jan-13 11:15N 35°17' E 119°52'0 0.1
2015-Jan-13 09:27N 35°18' E 119°52'0 0.1
2015-Jan-13 08:21N 35°18' E 119°52'0 0.1
2015-Jan-13 07:33N 35°18' E 119°52'0 0.1
2015-Jan-13 04:27N 35°17' E 119°52'0 0.1
2015-Jan-13 03:27N 35°17' E 119°52'0 0.0
2015-Jan-13 02:27N 35°17' E 119°52'0 0.0
2015-Jan-13 01:27N 35°17' E 119°52'0 0.0
2015-Jan-13 00:33N 35°17' E 119°52'0 0.1
2015-Jan-12 23:27N 35°17' E 119°52'0 0.1
2015-Jan-12 22:21N 35°18' E 119°52'0 0.1
2015-Jan-12 20:33N 35°18' E 119°52'0 0.0
2015-Jan-12 19:33N 35°18' E 119°52'0 0.0
2015-Jan-12 18:33N 35°18' E 119°52'0 0.1
2015-Jan-12 17:21N 35°17' E 119°52'0 0.2
2015-Jan-12 16:33N 35°17' E 119°52'0 0.1
2015-Jan-12 15:33N 35°17' E 119°52'0 0.0
2015-Jan-12 14:27N 35°17' E 119°52'0 0.0
2015-Jan-12 13:33N 35°17' E 119°52'0 0.0
2015-Jan-12 12:15N 35°17' E 119°52'0 0.0
2015-Jan-12 11:33N 35°17' E 119°52'0 0.0
2015-Jan-12 10:27N 35°17' E 119°52'0 0.1
2015-Jan-12 07:21N 35°18' E 119°52'0 0.0
2015-Jan-12 06:27N 35°18' E 119°52'0 0.1
2015-Jan-12 05:27N 35°18' E 119°52'0 0.2
2015-Jan-12 04:27N 35°17' E 119°52'0 0.2
2015-Jan-12 03:09N 35°17' E 119°52'0 0.0
2015-Jan-12 02:33N 35°17' E 119°52'0 0.0
2015-Jan-12 01:33N 35°17' E 119°52'0 0.0
2015-Jan-12 00:33N 35°17' E 119°52'0 0.0
2015-Jan-11 23:09N 35°17' E 119°52'0 0.1
2015-Jan-11 22:33N 35°17' E 119°52'0 0.2
2015-Jan-11 20:15N 35°18' E 119°52'0 0.0
2015-Jan-11 18:27N 35°18' E 119°52'0 0.0
2015-Jan-11 17:33N 35°18' E 119°52'0 0.2
2015-Jan-11 16:03N 35°17' E 119°52'0 0.1
2015-Jan-11 15:27N 35°17' E 119°52'0 0.1
2015-Jan-11 14:33N 35°17' E 119°52'0 0.1
2015-Jan-11 13:33N 35°17' E 119°52'0 0.0
2015-Jan-11 12:27N 35°17' E 119°52'0 0.0
2015-Jan-11 11:21N 35°17' E 119°52'0 0.1
2015-Jan-11 10:27N 35°17' E 119°52'0 0.1
2015-Jan-11 07:21N 35°18' E 119°52'0 0.0
2015-Jan-11 06:21N 35°18' E 119°52'0 0.0
2015-Jan-11 05:33N 35°18' E 119°52'0 0.0
2015-Jan-11 04:33N 35°18' E 119°52'0 0.3
2015-Jan-11 03:33N 35°17' E 119°52'0 0.1
2015-Jan-11 02:27N 35°17' E 119°52'0 0.1
2015-Jan-11 01:27N 35°17' E 119°52'0 0.0
2015-Jan-11 00:33N 35°17' E 119°52'0 0.1
2015-Jan-10 23:33N 35°17' E 119°52'0 0.0
2015-Jan-10 22:27N 35°17' E 119°52'0 0.0
2015-Jan-10 21:33N 35°17' E 119°52'0 0.1
2015-Jan-10 15:21N 35°17' E 119°52'0 0.1
2015-Jan-10 14:27N 35°17' E 119°52'0 0.2
2015-Jan-10 13:33N 35°17' E 119°52'0 0.1
2015-Jan-10 12:33N 35°17' E 119°52'0 0.0
2015-Jan-10 11:33N 35°17' E 119°52'0 0.0
2015-Jan-10 10:27N 35°17' E 119°52'0 0.2
2015-Jan-10 08:27N 35°18' E 119°52'0 0.1
2015-Jan-10 07:33N 35°18' E 119°52'0 0.1
2015-Jan-10 06:33N 35°18' E 119°52'0 0.0
2015-Jan-10 05:33N 35°18' E 119°52'0 0.1
2015-Jan-10 04:33N 35°18' E 119°52'0 0.0
2015-Jan-10 03:33N 35°18' E 119°52'0 0.0
2015-Jan-10 02:33N 35°17' E 119°52'0 0.1
2015-Jan-10 01:33N 35°17' E 119°52'  

Dump ship's entire track history